Time;durP1;ratioP1;P1;durP2;ratioP2;P2;SDS_P1;SDS_P2;PMS_P1;PMS_P2;Temp;Humidity;BMP_temperature;BMP_pressure;BME280_temperature;BME280_humidity;BME280_pressure;Samples;Min_cycle;Max_cycle;Signal;HPM_P1;HPM_P2
2021/09/13 00:01:49;;;;;;;6.07;3.08;;;;;;;24.99;45.29;101645.53;4976710;28;20026;-61
2021/09/13 00:04:15;;;;;;;3.80;2.80;;;;;;;24.96;44.89;101636.91;4977740;28;20110;-61
2021/09/13 00:06:40;;;;;;;9.07;3.60;;;;;;;24.98;44.83;101637.53;4977515;28;20023;-62
2021/09/13 00:09:05;;;;;;;7.85;3.00;;;;;;;24.97;45.00;101635.84;4977397;28;20365;-61
2021/09/13 00:11:31;;;;;;;10.75;3.60;;;;;;;24.98;44.65;101634.78;4977181;28;20049;-61
2021/09/13 00:13:56;;;;;;;6.18;3.30;;;;;;;24.97;45.00;101633.09;4977326;28;20427;-61
2021/09/13 00:16:21;;;;;;;6.38;2.88;;;;;;;24.95;44.72;101636.06;4976330;28;20105;-61
2021/09/13 00:18:47;;;;;;;4.20;3.10;;;;;;;24.90;45.41;101633.91;4977358;28;20035;-61
2021/09/13 00:21:12;;;;;;;5.60;3.00;;;;;;;24.89;44.88;101636.84;4977525;28;20038;-61
2021/09/13 00:23:37;;;;;;;4.53;3.33;;;;;;;24.86;44.99;101627.16;4976071;28;20030;-61
2021/09/13 00:26:03;;;;;;;7.75;3.83;;;;;;;24.85;45.64;101635.56;4977258;28;20027;-61
2021/09/13 00:28:28;;;;;;;7.20;3.17;;;;;;;24.80;45.31;101629.84;4977182;28;20031;-61
2021/09/13 00:30:53;;;;;;;10.25;3.80;;;;;;;24.78;45.74;101635.50;4977174;28;20451;-61
2021/09/13 00:33:19;;;;;;;7.25;3.17;;;;;;;24.76;45.22;101632.09;4977304;28;20053;-61
2021/09/13 00:35:44;;;;;;;3.90;3.13;;;;;;;24.71;45.71;101629.13;4977109;28;20062;-61
2021/09/13 00:38:09;;;;;;;5.30;2.97;;;;;;;24.71;45.92;101631.88;4976964;28;20035;-61
2021/09/13 00:40:35;;;;;;;6.90;3.45;;;;;;;24.69;45.66;101631.22;4977156;28;20035;-61
2021/09/13 00:43:04;;;;;;;7.53;3.15;;;;;;;24.65;45.58;101632.66;4977552;28;20039;-61
2021/09/13 00:45:29;;;;;;;4.82;3.40;;;;;;;24.65;45.34;101620.88;4977160;28;20481;-61
2021/09/13 00:47:55;;;;;;;6.45;3.35;;;;;;;24.59;45.70;101622.53;4977211;28;20103;-61
2021/09/13 00:50:20;;;;;;;4.22;3.28;;;;;;;24.61;45.91;101619.59;4975413;28;20090;-61
2021/09/13 00:52:51;;;;;;;5.28;3.20;;;;;;;24.59;45.45;101628.03;4976593;28;20166;-61
2021/09/13 00:55:16;;;;;;;5.15;3.05;;;;;;;24.57;46.19;101618.28;4977096;28;20034;-61
2021/09/13 00:57:42;;;;;;;4.20;2.92;;;;;;;24.53;46.01;101615.13;4959521;28;20442;-61
2021/09/13 01:00:09;;;;;;;5.70;3.00;;;;;;;24.51;46.34;101608.97;4976740;28;20136;-61
2021/09/13 01:02:35;;;;;;;5.55;3.53;;;;;;;24.46;46.20;101606.00;4976571;28;20499;-61
2021/09/13 01:05:00;;;;;;;4.07;3.00;;;;;;;24.44;46.38;101610.84;4975458;28;20043;-61
2021/09/13 01:07:25;;;;;;;8.48;3.25;;;;;;;24.42;46.00;101607.47;4976346;28;20451;-61
2021/09/13 01:09:51;;;;;;;4.93;3.00;;;;;;;24.37;45.58;101599.00;4976368;28;20037;-61
2021/09/13 01:12:17;;;;;;;5.68;3.50;;;;;;;24.35;45.73;101601.06;4976368;28;20034;-61
2021/09/13 01:14:42;;;;;;;6.32;3.63;;;;;;;24.30;46.34;101595.34;4975333;28;20073;-61
2021/09/13 01:17:08;;;;;;;5.82;2.50;;;;;;;24.28;46.27;101602.94;4975350;28;20050;-61
2021/09/13 01:19:34;;;;;;;8.75;2.97;;;;;;;24.23;45.60;101602.69;4976303;28;20035;-61
2021/09/13 01:22:02;;;;;;;5.90;3.25;;;;;;;24.19;46.56;101598.66;4976249;28;20395;-61
2021/09/13 01:24:28;;;;;;;7.13;2.97;;;;;;;24.14;45.57;101601.16;4976340;28;20029;-61
2021/09/13 01:26:59;;;;;;;4.18;2.60;;;;;;;24.04;46.24;101585.00;4976052;28;20042;-61
2021/09/13 01:29:24;;;;;;;4.35;2.90;;;;;;;24.03;46.58;101597.03;4976006;28;20038;-61
2021/09/13 01:31:49;;;;;;;3.80;3.35;;;;;;;23.98;45.89;101595.94;4976040;28;20073;-61
2021/09/13 01:34:15;;;;;;;5.32;3.10;;;;;;;23.92;46.71;101602.19;4975919;28;20034;-61
2021/09/13 01:36:40;;;;;;;5.15;3.38;;;;;;;23.85;46.61;101598.53;4974679;28;20547;-61
2021/09/13 01:39:05;;;;;;;8.38;3.30;;;;;;;23.80;45.95;101590.06;4975946;28;20066;-61
2021/09/13 01:41:31;;;;;;;4.82;3.45;;;;;;;23.76;46.64;101598.66;4975769;28;20034;-61
2021/09/13 01:43:56;;;;;;;5.72;2.88;;;;;;;23.72;46.46;101597.38;4976040;28;20114;-61
2021/09/13 01:46:22;;;;;;;6.40;3.47;;;;;;;23.70;46.10;101604.94;4974393;28;20061;-61
2021/09/13 01:48:47;;;;;;;7.20;2.78;;;;;;;23.68;46.61;101596.06;4976445;28;20038;-61
2021/09/13 01:51:12;;;;;;;3.95;2.95;;;;;;;23.64;46.28;101604.88;4975463;28;20123;-61
2021/09/13 01:53:38;;;;;;;4.95;3.70;;;;;;;23.60;46.45;101603.56;4975797;28;20097;-61
2021/09/13 01:56:03;;;;;;;7.82;3.45;;;;;;;23.57;46.29;101599.34;4975619;28;20134;-60
2021/09/13 01:58:28;;;;;;;6.20;3.60;;;;;;;23.54;47.07;101610.66;4975139;28;20047;-61
2021/09/13 02:00:54;;;;;;;4.22;3.13;;;;;;;23.49;46.85;101602.19;4974512;28;20392;-61
2021/09/13 02:03:19;;;;;;;5.18;2.75;;;;;;;23.52;47.03;101609.16;4975359;28;20030;-61
2021/09/13 02:05:45;;;;;;;5.13;3.95;;;;;;;23.52;47.22;101610.03;4974500;28;20041;-61
2021/09/13 02:08:10;;;;;;;3.55;2.78;;;;;;;23.51;46.76;101605.56;4975332;28;20069;-63
2021/09/13 02:10:35;;;;;;;6.82;3.10;;;;;;;23.50;47.29;101609.38;4974511;28;20034;-61
2021/09/13 02:13:01;;;;;;;5.15;3.42;;;;;;;23.46;46.97;101607.19;4975267;28;20443;-63
2021/09/13 02:15:26;;;;;;;4.88;3.20;;;;;;;23.47;47.27;101604.28;4975518;28;20026;-62
2021/09/13 02:17:52;;;;;;;7.28;3.90;;;;;;;23.46;47.50;101605.31;4974988;28;20113;-61
2021/09/13 02:20:17;;;;;;;7.70;3.78;;;;;;;23.46;47.24;101601.72;4975332;28;20031;-61
2021/09/13 02:22:42;;;;;;;7.65;4.45;;;;;;;23.45;47.91;101606.34;4975557;28;20491;-61
2021/09/13 02:25:09;;;;;;;7.00;4.10;;;;;;;23.44;47.81;101607.41;4975335;28;20054;-61
2021/09/13 02:27:34;;;;;;;6.43;3.63;;;;;;;23.41;47.32;101594.13;4975346;28;20030;-61
2021/09/13 02:29:59;;;;;;;5.78;2.92;;;;;;;23.43;46.99;101593.91;4974253;28;20427;-61
2021/09/13 02:32:25;;;;;;;4.20;3.15;;;;;;;23.38;46.96;101591.78;4975206;28;20396;-61
2021/09/13 02:34:50;;;;;;;4.93;3.40;;;;;;;23.38;47.13;101594.50;4974839;28;20031;-61
2021/09/13 02:37:15;;;;;;;8.13;3.63;;;;;;;23.37;47.81;101592.78;4974826;28;20093;-61
2021/09/13 02:39:41;;;;;;;4.43;3.05;;;;;;;23.34;47.58;101595.06;4974801;28;20085;-63
2021/09/13 02:42:06;;;;;;;5.45;3.33;;;;;;;23.31;48.10;101593.53;4975065;28;20085;-61
2021/09/13 02:44:32;;;;;;;6.18;3.03;;;;;;;23.30;47.53;101591.88;4975179;28;20034;-61
2021/09/13 02:46:57;;;;;;;3.80;3.08;;;;;;;23.29;47.07;101595.63;4974560;28;20037;-61
2021/09/13 02:49:22;;;;;;;6.10;3.70;;;;;;;23.28;47.02;101588.50;4974834;28;20053;-61
2021/09/13 02:51:48;;;;;;;5.70;2.90;;;;;;;23.25;47.06;101583.41;4974613;28;20051;-61
2021/09/13 02:54:13;;;;;;;6.78;2.75;;;;;;;23.22;47.13;101586.53;4974897;28;20065;-61
2021/09/13 02:56:39;;;;;;;8.05;3.30;;;;;;;23.14;46.92;101575.72;4974768;28;20488;-61
2021/09/13 02:59:04;;;;;;;6.97;3.92;;;;;;;23.15;47.42;101580.13;4973636;28;20045;-62
2021/09/13 03:01:29;;;;;;;5.65;3.45;;;;;;;23.13;47.06;101579.47;4974649;28;20042;-61
2021/09/13 03:03:55;;;;;;;5.80;3.63;;;;;;;23.08;47.74;101576.47;4974702;28;20081;-61
2021/09/13 03:06:20;;;;;;;4.57;2.83;;;;;;;23.07;47.38;101580.22;4973503;28;20388;-61
2021/09/13 03:08:45;;;;;;;3.75;2.90;;;;;;;23.01;47.73;101586.47;4975598;28;20101;-61
2021/09/13 03:11:11;;;;;;;3.38;2.28;;;;;;;22.99;47.89;101588.53;4978414;28;20054;-61
2021/09/13 03:13:36;;;;;;;4.22;3.15;;;;;;;22.93;47.77;101583.84;4978612;28;20038;-62
2021/09/13 03:16:02;;;;;;;6.07;3.58;;;;;;;22.93;47.98;101589.31;4978616;28;20036;-62
2021/09/13 03:18:27;;;;;;;9.23;3.45;;;;;;;22.89;47.94;101582.53;4978754;28;20117;-61
2021/09/13 03:20:53;;;;;;;6.55;3.25;;;;;;;22.87;48.21;101588.19;4979010;28;20065;-61
2021/09/13 03:23:18;;;;;;;6.45;3.13;;;;;;;22.81;47.29;101583.47;4978458;28;20023;-60
2021/09/13 03:25:44;;;;;;;5.07;3.22;;;;;;;22.79;47.80;101580.09;4978485;28;20563;-61
2021/09/13 03:28:09;;;;;;;4.55;3.05;;;;;;;22.77;47.03;101581.31;4977233;28;20037;-61
2021/09/13 03:30:34;;;;;;;7.00;3.83;;;;;;;22.74;47.51;101590.75;4961413;28;20039;-61
2021/09/13 03:33:00;;;;;;;4.25;3.10;;;;;;;22.73;48.21;101589.06;4978223;28;20058;-61
2021/09/13 03:35:25;;;;;;;5.05;3.80;;;;;;;22.72;48.10;101597.44;4977169;28;20027;-61
2021/09/13 03:37:50;;;;;;;4.97;2.78;;;;;;;22.70;47.34;101594.88;4978206;28;20162;-61
2021/09/13 03:40:16;;;;;;;3.17;2.60;;;;;;;22.64;48.28;101595.63;4978084;28;20089;-61
2021/09/13 03:42:41;;;;;;;3.55;2.50;;;;;;;22.61;47.97;101606.94;4976541;28;20031;-61
2021/09/13 03:45:07;;;;;;;3.25;2.13;;;;;;;22.56;47.20;101604.75;4978115;28;20089;-61
2021/09/13 03:47:32;;;;;;;2.60;2.03;;;;;;;22.50;47.25;101602.78;4978365;28;20035;-62
2021/09/13 03:49:58;;;;;;;2.80;2.22;;;;;;;22.44;47.77;101606.28;4976688;28;20464;-62
2021/09/13 03:52:23;;;;;;;4.25;2.17;;;;;;;22.42;47.41;101602.00;4977702;28;20483;-62
2021/09/13 03:54:48;;;;;;;5.22;2.40;;;;;;;22.34;47.21;101594.75;4976919;28;20027;-62
2021/09/13 03:57:14;;;;;;;1.92;1.65;;;;;;;22.35;47.28;101607.41;4977802;28;20087;-62
2021/09/13 03:59:39;;;;;;;3.13;2.10;;;;;;;22.33;47.16;101612.19;4977579;28;20507;-62
2021/09/13 04:02:04;;;;;;;2.45;1.75;;;;;;;22.29;48.15;101613.59;4977748;28;20138;-62
2021/09/13 04:04:31;;;;;;;4.00;1.77;;;;;;;22.25;47.35;101617.72;4977757;28;20476;-62
2021/09/13 04:07:14;;;;;;;3.28;2.20;;;;;;;22.21;47.24;101616.41;4977575;28;20038;-61
2021/09/13 04:12:11;;;;;;;4.43;3.08;;;;;;;22.13;48.19;101616.50;4977661;28;20023;-60
2021/09/13 04:14:36;;;;;;;8.40;3.25;;;;;;;22.12;47.98;101617.50;4977694;28;20095;-61
2021/09/13 04:17:02;;;;;;;5.18;2.70;;;;;;;22.10;47.44;101608.66;4976733;28;20066;-61
2021/09/13 04:19:27;;;;;;;7.10;3.35;;;;;;;22.10;48.26;101602.34;4977391;28;20049;-62
2021/09/13 04:21:54;;;;;;;3.97;2.90;;;;;;;22.07;47.95;101609.03;4976502;28;20035;-61
2021/09/13 04:24:19;;;;;;;6.55;3.60;;;;;;;22.05;47.71;101611.13;4977768;28;20030;-61
2021/09/13 04:26:45;;;;;;;4.47;3.45;;;;;;;22.02;47.64;101606.03;4976444;28;20476;-61
2021/09/13 04:29:12;;;;;;;6.45;3.25;;;;;;;21.99;47.83;101607.25;4977661;28;20468;-60
2021/09/13 04:31:37;;;;;;;19.40;3.78;;;;;;;21.96;47.57;101606.75;4977142;28;20411;-60
2021/09/13 04:34:03;;;;;;;6.85;3.80;;;;;;;21.91;47.51;101610.03;4976294;28;20033;-61
2021/09/13 04:36:28;;;;;;;5.50;3.80;;;;;;;21.89;48.34;101608.50;4977133;28;20034;-60
2021/09/13 04:38:54;;;;;;;5.75;3.30;;;;;;;21.86;48.02;101606.13;4977823;28;20062;-61
2021/09/13 04:41:19;;;;;;;2.42;1.98;;;;;;;21.82;47.60;101600.19;4977324;28;20041;-60
2021/09/13 04:43:44;;;;;;;3.15;2.50;;;;;;;21.79;48.24;101603.28;4977900;28;20031;-60
2021/09/13 04:46:10;;;;;;;4.65;2.38;;;;;;;21.77;47.61;101607.22;4976042;28;20085;-60
2021/09/13 04:48:35;;;;;;;4.00;3.00;;;;;;;21.75;48.58;101598.34;4977430;28;20547;-61
2021/09/13 04:51:01;;;;;;;6.05;2.58;;;;;;;21.72;48.60;101594.13;4977292;28;20063;-61
2021/09/13 04:53:26;;;;;;;5.25;3.10;;;;;;;21.70;48.20;101603.53;4977380;28;20073;-60
2021/09/13 04:55:51;;;;;;;5.50;3.97;;;;;;;21.69;47.88;101605.41;4977072;28;20022;-60
2021/09/13 04:58:17;;;;;;;9.35;3.58;;;;;;;21.69;48.27;101604.56;4977371;28;20483;-60
2021/09/13 05:00:42;;;;;;;2.45;1.80;;;;;;;21.67;47.69;101604.75;4977356;28;20082;-61
2021/09/13 05:03:08;;;;;;;3.35;2.00;;;;;;;21.65;47.90;101608.69;4977343;28;20050;-61
2021/09/13 05:05:34;;;;;;;7.85;2.25;;;;;;;21.61;47.72;101601.91;4975969;28;20134;-61
2021/09/13 05:07:59;;;;;;;4.25;2.35;;;;;;;21.58;47.44;101602.28;4977328;28;20026;-61
2021/09/13 05:10:25;;;;;;;4.03;2.53;;;;;;;21.55;47.47;101608.94;4976051;28;20034;-60
2021/09/13 05:12:51;;;;;;;6.00;2.70;;;;;;;21.53;47.72;101608.25;4976297;28;20035;-60
2021/09/13 05:15:16;;;;;;;8.63;3.88;;;;;;;21.52;47.40;101606.56;4975831;28;20050;-61
2021/09/13 05:17:42;;;;;;;6.55;3.83;;;;;;;21.50;47.77;101602.34;4975989;28;20484;-61
2021/09/13 05:20:08;;;;;;;7.55;4.00;;;;;;;21.51;47.73;101609.47;4977221;28;20109;-61
2021/09/13 05:22:34;;;;;;;3.33;2.90;;;;;;;21.51;48.27;101612.19;4977042;28;20069;-60
2021/09/13 05:24:59;;;;;;;4.22;3.20;;;;;;;21.50;48.30;101605.06;4975874;28;20050;-61
2021/09/13 05:27:25;;;;;;;7.93;3.25;;;;;;;21.46;47.31;101602.69;4976847;28;20547;-61
2021/09/13 05:29:50;;;;;;;6.05;3.33;;;;;;;21.45;47.41;101609.16;4976877;28;20035;-60
2021/09/13 05:32:15;;;;;;;8.45;3.20;;;;;;;21.45;47.49;101609.16;4976431;28;20043;-59
2021/09/13 05:34:41;;;;;;;5.63;3.05;;;;;;;21.45;48.34;101620.06;4985324;28;20038;-60
2021/09/13 05:37:07;;;;;;;5.35;2.80;;;;;;;21.43;47.91;101603.06;4996022;28;20332;-60
2021/09/13 05:39:32;;;;;;;8.90;3.80;;;;;;;21.47;48.74;101612.56;4996493;28;20102;-60
2021/09/13 05:41:58;;;;;;;5.82;3.53;;;;;;;21.48;48.36;101607.94;4996167;28;20387;-60
2021/09/13 05:44:23;;;;;;;4.18;3.20;;;;;;;21.46;47.89;101605.41;5011575;28;20034;-60
2021/09/13 05:46:49;;;;;;;3.75;2.10;;;;;;;21.52;47.40;101613.91;4994760;28;20034;-60
2021/09/13 05:49:14;;;;;;;6.75;3.40;;;;;;;21.57;48.23;101606.03;4995667;28;20451;-60
2021/09/13 05:51:45;;;;;;;7.75;4.00;;;;;;;21.63;47.91;101605.28;4995561;28;20446;-60
2021/09/13 05:54:11;;;;;;;8.55;4.45;;;;;;;21.68;48.15;101614.63;4994864;28;20521;-60
2021/09/13 05:56:36;;;;;;;7.53;4.47;;;;;;;21.76;48.45;101616.44;4995422;28;20031;-60
2021/09/13 05:59:02;;;;;;;7.65;4.60;;;;;;;21.80;47.97;101612.31;4994524;28;20041;-60
2021/09/13 06:01:27;;;;;;;5.43;3.53;;;;;;;21.82;47.93;101621.16;4995298;28;20079;-61
2021/09/13 06:03:53;;;;;;;6.78;3.97;;;;;;;21.87;47.88;101616.03;4995305;28;20030;-60
2021/09/13 06:06:18;;;;;;;11.20;5.15;;;;;;;21.90;48.30;101621.13;4995434;28;20048;-60
2021/09/13 06:08:44;;;;;;;5.68;4.10;;;;;;;21.96;48.31;101620.41;4994299;28;20034;-60
2021/09/13 06:11:09;;;;;;;6.97;3.75;;;;;;;22.04;47.53;101633.97;4995008;28;20034;-61
2021/09/13 06:13:34;;;;;;;6.30;4.03;;;;;;;22.16;47.51;101635.22;4995076;28;20034;-61
2021/09/13 06:16:00;;;;;;;5.65;4.03;;;;;;;22.31;47.88;101638.81;4994969;28;20053;-61
2021/09/13 06:18:26;;;;;;;8.52;4.80;;;;;;;22.46;48.20;101645.16;4993679;28;20383;-62
2021/09/13 06:20:51;;;;;;;10.45;5.35;;;;;;;22.57;47.36;101639.22;4993981;28;20561;-62
2021/09/13 06:23:17;;;;;;;11.02;6.03;;;;;;;22.80;47.72;101660.19;4993618;28;20040;-60
2021/09/13 06:25:42;;;;;;;9.65;5.80;;;;;;;22.92;47.59;101643.09;4993417;28;20026;-61
2021/09/13 06:28:07;;;;;;;10.52;6.72;;;;;;;23.07;48.41;101648.56;4994646;28;20075;-61
2021/09/13 06:30:33;;;;;;;13.43;6.80;;;;;;;23.18;47.42;101653.53;4994881;28;20061;-61
2021/09/13 06:32:58;;;;;;;10.75;6.90;;;;;;;23.27;47.94;101644.19;4994403;28;20018;-61
2021/09/13 06:35:23;;;;;;;10.13;7.18;;;;;;;23.38;48.33;101651.94;4994335;28;20038;-61
2021/09/13 06:37:49;;;;;;;13.98;7.55;;;;;;;23.50;48.38;101655.88;4994510;28;20031;-61
2021/09/13 06:40:14;;;;;;;12.15;6.68;;;;;;;23.58;47.97;101642.06;4994364;28;20034;-61
2021/09/13 06:42:40;;;;;;;14.57;7.75;;;;;;;23.74;47.85;101641.81;4994207;28;20034;-61
2021/09/13 06:45:11;;;;;;;21.40;8.48;;;;;;;23.92;47.51;101651.47;4994395;28;20034;-61
2021/09/13 06:47:44;;;;;;;14.30;6.90;;;;;;;24.04;48.02;101650.72;4993314;28;20076;-61
2021/09/13 06:50:17;;;;;;;12.52;8.23;;;;;;;24.18;47.34;101651.72;4993999;28;20483;-61
2021/09/13 06:52:44;;;;;;;12.43;7.72;;;;;;;24.30;47.10;101644.66;4994490;28;20118;-61
2021/09/13 06:55:10;;;;;;;13.13;8.13;;;;;;;24.40;47.30;101631.44;4994082;28;20038;-61
2021/09/13 06:57:35;;;;;;;12.75;7.32;;;;;;;24.65;46.64;101640.06;4994346;28;20042;-61
2021/09/13 07:00:07;;;;;;;13.55;7.82;;;;;;;24.84;46.76;101640.22;4994231;28;20037;-61
2021/09/13 07:02:32;;;;;;;13.55;7.80;;;;;;;24.99;46.39;101644.69;4993982;28;20038;-61
2021/09/13 07:04:58;;;;;;;14.63;6.85;;;;;;;25.11;46.47;101643.06;4993922;28;20052;-61
2021/09/13 07:07:23;;;;;;;10.75;7.80;;;;;;;25.25;46.67;101653.91;4994190;28;20065;-61
2021/09/13 07:09:48;;;;;;;15.15;6.97;;;;;;;25.36;45.90;101647.81;4994050;28;20369;-61
2021/09/13 07:12:14;;;;;;;10.88;6.78;;;;;;;25.54;46.04;101644.53;4994114;28;20049;-61
2021/09/13 07:14:39;;;;;;;11.65;7.28;;;;;;;25.64;45.75;101649.63;4993733;28;20033;-61
2021/09/13 07:17:05;;;;;;;16.00;7.35;;;;;;;25.74;45.89;101650.91;4994239;28;20084;-61
2021/09/13 07:19:30;;;;;;;14.27;7.55;;;;;;;25.86;45.57;101643.75;4993837;28;20050;-61
2021/09/13 07:21:56;;;;;;;10.70;5.88;;;;;;;25.93;45.72;101639.13;4994024;28;20035;-61
2021/09/13 07:24:21;;;;;;;12.23;5.43;;;;;;;26.04;45.35;101649.47;4994192;28;20050;-61
2021/09/13 07:26:48;;;;;;;16.27;6.03;;;;;;;26.19;45.13;101642.94;4994175;28;20026;-61
2021/09/13 07:29:14;;;;;;;7.47;5.03;;;;;;;26.30;44.84;101634.09;4994167;28;20486;-61
2021/09/13 07:31:39;;;;;;;6.53;4.70;;;;;;;26.41;45.14;101633.44;4994111;28;20110;-61
2021/09/13 07:34:05;;;;;;;9.98;5.72;;;;;;;26.51;44.61;101645.69;4993818;28;20027;-61
2021/09/13 07:36:32;;;;;;;7.53;4.78;;;;;;;26.67;44.63;101647.13;4993740;28;20038;-61
2021/09/13 07:38:57;;;;;;;14.93;6.18;;;;;;;26.80;44.63;101649.84;4993662;28;20033;-61
2021/09/13 07:41:23;;;;;;;6.70;4.65;;;;;;;26.91;44.14;101653.88;4993613;28;20026;-61
2021/09/13 07:43:48;;;;;;;7.18;4.65;;;;;;;27.11;43.62;101658.22;4994043;28;20027;-61
2021/09/13 07:46:14;;;;;;;10.30;5.00;;;;;;;27.14;44.04;101637.69;4993990;28;20125;-62
2021/09/13 07:48:39;;;;;;;9.90;4.55;;;;;;;27.45;43.46;101662.56;4993607;28;20030;-61
2021/09/13 07:51:04;;;;;;;8.18;4.30;;;;;;;27.60;43.46;101656.75;4993458;28;20054;-62
2021/09/13 07:53:30;;;;;;;9.27;4.70;;;;;;;27.72;42.77;101644.00;4993765;28;20036;-61
2021/09/13 07:55:55;;;;;;;9.77;5.22;;;;;;;27.91;43.35;101656.78;4994867;28;20118;-61
2021/09/13 07:58:21;;;;;;;6.70;4.82;;;;;;;28.10;42.60;101668.75;4997237;28;20030;-61
2021/09/13 08:00:46;;;;;;;6.88;5.18;;;;;;;28.21;42.33;101663.34;4996113;28;20030;-62
2021/09/13 08:03:11;;;;;;;10.13;4.78;;;;;;;28.36;42.01;101654.75;4996986;28;20088;-61
2021/09/13 08:05:37;;;;;;;11.75;4.75;;;;;;;28.50;42.08;101660.97;4997048;28;20027;-61
2021/09/13 08:08:02;;;;;;;10.07;5.25;;;;;;;28.63;42.41;101667.25;4997325;28;20022;-61
2021/09/13 08:10:28;;;;;;;10.02;5.80;;;;;;;28.69;42.34;101671.00;4997484;28;20026;-61
2021/09/13 08:12:53;;;;;;;9.65;5.55;;;;;;;28.77;42.13;101667.94;4997265;28;20033;-61
2021/09/13 08:15:22;;;;;;;11.65;5.68;;;;;;;28.85;42.08;101659.34;4997282;28;20074;-61
2021/09/13 08:17:48;;;;;;;13.80;5.45;;;;;;;28.95;41.37;101658.84;4996217;28;20113;-60
2021/09/13 08:20:13;;;;;;;13.90;6.35;;;;;;;29.04;41.40;101660.19;4997134;28;20061;-62
2021/09/13 08:22:38;;;;;;;14.38;6.13;;;;;;;29.13;41.72;101661.59;4996076;28;20057;-60
2021/09/13 08:25:04;;;;;;;12.00;4.85;;;;;;;29.27;41.50;101652.09;4997248;28;20066;-61
2021/09/13 08:27:29;;;;;;;10.27;6.13;;;;;;;29.38;41.00;101660.44;4997195;28;20034;-61
2021/09/13 08:29:55;;;;;;;8.48;5.07;;;;;;;29.53;40.64;101664.72;4997024;28;20081;-61
2021/09/13 08:32:20;;;;;;;8.98;4.90;;;;;;;29.67;40.55;101666.22;4997036;28;20026;-62
2021/09/13 08:34:45;;;;;;;11.57;5.10;;;;;;;29.76;40.57;101659.28;4996727;28;20531;-61
2021/09/13 08:37:11;;;;;;;8.52;4.82;;;;;;;29.84;40.59;101658.97;4996497;28;20064;-60
2021/09/13 08:39:36;;;;;;;10.38;5.28;;;;;;;29.95;40.87;101652.63;4996874;28;20026;-61
2021/09/13 08:42:02;;;;;;;11.18;4.82;;;;;;;30.16;39.99;101671.41;4997045;28;20454;-62
2021/09/13 08:44:30;;;;;;;11.82;5.03;;;;;;;30.34;40.28;101674.09;4997014;28;20030;-61
2021/09/13 08:47:03;;;;;;;12.75;5.35;;;;;;;30.56;39.38;101666.94;4995483;28;20452;-61
2021/09/13 08:49:38;;;;;;;8.00;5.20;;;;;;;30.67;39.19;101669.91;4995454;28;20411;-62
2021/09/13 08:52:05;;;;;;;12.18;5.50;;;;;;;30.68;39.03;101655.00;4996118;28;20054;-61
2021/09/13 08:54:33;;;;;;;10.02;4.85;;;;;;;30.80;39.02;101664.97;4996555;28;20054;-58
2021/09/13 08:57:08;;;;;;;9.18;4.90;;;;;;;30.83;39.02;101667.25;4996404;28;20026;-59
2021/09/13 08:59:36;;;;;;;7.53;5.07;;;;;;;30.95;38.68;101668.13;4996009;28;20035;-59
2021/09/13 09:02:02;;;;;;;11.68;4.80;;;;;;;31.05;38.85;101668.34;4996098;28;20126;-59
2021/09/13 09:04:29;;;;;;;12.88;6.32;;;;;;;31.18;38.39;101666.41;4996406;28;20057;-59
2021/09/13 09:06:54;;;;;;;11.18;5.72;;;;;;;31.30;38.09;101664.41;4996034;28;20026;-59
2021/09/13 09:09:21;;;;;;;11.32;5.57;;;;;;;31.42;38.03;101679.06;4996319;28;20037;-59
2021/09/13 09:11:56;;;;;;;12.43;6.25;;;;;;;31.36;37.89;101686.44;4995085;28;20053;-59
2021/09/13 09:14:32;;;;;;;12.07;5.50;;;;;;;31.34;37.90;101688.63;4996214;28;20432;-59
2021/09/13 09:17:09;;;;;;;10.07;5.07;;;;;;;31.34;38.49;101679.47;4994963;28;20050;-59
2021/09/13 09:19:35;;;;;;;19.33;5.95;;;;;;;31.34;38.33;101683.09;4995902;28;20026;-59
2021/09/13 09:22:22;;;;;;;12.32;5.93;;;;;;;31.38;38.01;101681.50;4996057;28;20033;-59
2021/09/13 09:24:49;;;;;;;13.20;5.68;;;;;;;31.52;37.50;101685.69;4995761;28;20022;-59
2021/09/13 09:27:15;;;;;;;8.50;5.47;;;;;;;31.61;37.81;101675.91;4994580;28;20037;-58
2021/09/13 09:29:40;;;;;;;8.95;4.22;;;;;;;31.78;36.99;101678.72;4994690;28;20030;-59
2021/09/13 09:32:06;;;;;;;9.82;4.97;;;;;;;32.03;37.20;101679.22;4995811;28;20493;-59
2021/09/13 09:34:33;;;;;;;8.60;5.15;;;;;;;32.27;36.40;101677.94;4995517;28;20450;-59
2021/09/13 09:37:04;;;;;;;11.68;5.32;;;;;;;32.44;37.01;101688.22;4996026;28;20073;-59
2021/09/13 09:39:29;;;;;;;8.40;4.90;;;;;;;32.70;36.24;101680.06;4995549;28;20430;-59
2021/09/13 09:41:56;;;;;;;6.25;4.55;;;;;;;33.13;36.62;101681.25;4994578;28;20034;-59
2021/09/13 09:44:22;;;;;;;13.05;5.18;;;;;;;33.92;35.75;101680.53;4994421;28;20035;-59
2021/09/13 09:46:47;;;;;;;8.95;4.82;;;;;;;34.15;33.97;101678.53;4995758;28;20022;-59
2021/09/13 09:49:17;;;;;;;14.18;5.68;;;;;;;34.32;34.46;101671.75;4994724;28;20395;-59
2021/09/13 09:51:53;;;;;;;8.05;5.22;;;;;;;34.34;33.91;101672.31;4995677;28;20475;-59
2021/09/13 09:54:23;;;;;;;9.88;5.30;;;;;;;34.17;35.22;101673.56;4995553;28;20034;-60
2021/09/13 09:56:59;;;;;;;10.13;5.10;;;;;;;34.34;34.64;101671.50;4995446;28;20034;-60
2021/09/13 09:59:37;;;;;;;8.25;5.35;;;;;;;34.44;34.67;101661.28;4994203;28;20033;-60
2021/09/13 10:02:16;;;;;;;10.68;4.90;;;;;;;34.72;33.76;101662.03;4995722;28;20030;-59
2021/09/13 10:04:45;;;;;;;9.65;6.45;;;;;;;34.78;33.66;101656.25;4996106;28;20026;-58
2021/09/13 10:07:14;;;;;;;11.23;6.22;;;;;;;34.70;33.84;101641.97;4997466;28;20025;-59
2021/09/13 10:09:41;;;;;;;10.48;5.22;;;;;;;34.91;33.34;101650.16;4996684;28;20030;-59
2021/09/13 10:12:06;;;;;;;10.68;6.13;;;;;;;35.12;32.90;101655.88;4996502;28;20037;-59
2021/09/13 10:14:33;;;;;;;12.68;8.15;;;;;;;35.35;32.64;101644.25;4995887;28;20034;-59
2021/09/13 10:16:59;;;;;;;15.13;6.97;;;;;;;35.66;32.63;101646.03;4997389;28;20151;-59
2021/09/13 10:19:25;;;;;;;9.88;6.75;;;;;;;35.93;32.51;101641.03;4996399;28;20026;-59
2021/09/13 10:21:51;;;;;;;10.95;6.28;;;;;;;36.20;32.18;101640.81;4995292;28;20030;-59
2021/09/13 10:24:17;;;;;;;9.40;5.65;;;;;;;36.42;32.10;101644.13;4996834;28;20033;-59
2021/09/13 10:27:06;;;;;;;8.75;5.50;;;;;;;36.63;31.64;101629.03;4994381;28;20030;-59
2021/09/13 10:29:32;;;;;;;12.02;6.85;;;;;;;36.36;32.19;101630.44;4995408;28;20502;-59
2021/09/13 10:32:03;;;;;;;11.93;6.55;;;;;;;36.38;31.39;101636.63;4995336;28;20034;-59
2021/09/13 10:34:49;;;;;;;10.40;6.30;;;;;;;36.47;31.84;101637.69;4995167;28;20026;-59
2021/09/13 10:37:18;;;;;;;10.07;6.82;;;;;;;36.69;31.34;101627.06;4995311;28;20049;-59
2021/09/13 10:39:54;;;;;;;15.90;7.20;;;;;;;36.99;30.73;101629.81;4995385;28;20022;-60
2021/09/13 10:42:45;;;;;;;9.88;5.85;;;;;;;37.30;30.23;101628.53;4995445;28;20033;-59
2021/09/13 10:45:11;;;;;;;10.82;6.72;;;;;;;37.55;30.29;101635.13;4994256;28;20088;-60
2021/09/13 10:47:38;;;;;;;12.35;7.15;;;;;;;37.59;29.92;101630.63;4995390;28;20058;-60
2021/09/13 10:50:11;;;;;;;14.25;8.68;;;;;;;37.74;29.81;101627.72;4994574;28;20057;-60
2021/09/13 10:52:36;;;;;;;12.45;6.85;;;;;;;37.91;30.22;101622.59;4994569;28;20117;-60
2021/09/13 10:55:08;;;;;;;9.30;5.93;;;;;;;38.02;29.84;101617.75;4995214;28;20022;-60
2021/09/13 10:58:08;;;;;;;8.32;5.40;;;;;;;38.20;30.02;101615.03;4995250;28;20084;-60
2021/09/13 11:00:39;;;;;;;14.13;5.82;;;;;;;38.31;29.18;101612.97;4995177;28;20027;-60
2021/09/13 11:03:32;;;;;;;12.25;5.82;;;;;;;38.41;29.26;101610.13;4993639;28;20037;-60
2021/09/13 11:06:07;;;;;;;10.60;5.75;;;;;;;38.47;29.47;101608.09;4995226;28;20105;-60
2021/09/13 11:08:35;;;;;;;8.90;5.15;;;;;;;38.55;29.58;101611.09;4994843;28;20037;-60
2021/09/13 11:11:00;;;;;;;11.27;5.90;;;;;;;38.28;29.62;101605.16;4993921;28;20061;-60
2021/09/13 11:13:26;;;;;;;10.35;4.65;;;;;;;37.61;29.63;101609.63;4995448;28;20442;-59
2021/09/13 11:15:51;;;;;;;11.50;5.00;;;;;;;36.91;30.19;101607.97;4994750;28;20041;-60
2021/09/13 11:18:37;;;;;;;9.05;4.50;;;;;;;37.18;29.92;101602.88;4994763;28;20027;-60
2021/09/13 11:21:18;;;;;;;7.43;4.72;;;;;;;37.32;29.32;101598.34;4995220;28;20030;-60
2021/09/13 11:23:44;;;;;;;9.63;4.15;;;;;;;37.45;29.04;101590.44;4994925;28;20117;-60